Time;durP1;ratioP1;P1;durP2;ratioP2;P2;SDS_P1;SDS_P2;PMS_P1;PMS_P2;Temp;Humidity;BMP_temperature;BMP_pressure;BME280_temperature;BME280_humidity;BME280_pressure;Samples;Min_cycle;Max_cycle;Signal;HPM_P1;HPM_P2
2021/06/06 00:00:12;;;;;;;3.60;1.27;;;;;;;12.83;100.00;95988.84;1004917;29;20026;-80
2021/06/06 00:00:47;;;;;;;5.88;1.05;;;;;;;12.90;100.00;95996.09;1005043;29;20117;-80
2021/06/06 00:01:20;;;;;;;2.47;1.42;;;;;;;12.78;100.00;95971.75;1004988;29;20024;-81
2021/06/06 00:01:51;;;;;;;2.53;1.10;;;;;;;12.89;100.00;95989.09;1001121;29;20112;-80
2021/06/06 00:02:22;;;;;;;5.07;1.40;;;;;;;12.92;100.00;95997.56;1004721;29;20508;-80
2021/06/06 00:02:53;;;;;;;2.58;1.00;;;;;;;12.95;100.00;95997.16;1001259;29;20021;-81
2021/06/06 00:03:27;;;;;;;3.70;1.20;;;;;;;12.90;100.00;95991.56;1012924;29;20436;-80
2021/06/06 00:03:58;;;;;;;3.42;1.02;;;;;;;12.95;100.00;95997.16;1009021;29;20036;-80
2021/06/06 00:04:28;;;;;;;3.05;1.50;;;;;;;12.91;100.00;95995.06;1011751;29;20029;-80
2021/06/06 00:04:59;;;;;;;3.10;1.20;;;;;;;12.89;100.00;95989.94;1009440;29;20029;-80
2021/06/06 00:05:53;;;;;;;2.80;1.50;;;;;;;12.92;100.00;95994.91;1007336;29;20028;-80
2021/06/06 00:06:34;;;;;;;2.47;1.40;;;;;;;12.77;100.00;95972.78;1005533;29;20022;-80
2021/06/06 00:07:05;;;;;;;1.83;1.20;;;;;;;12.92;100.00;95989.56;1009401;29;20021;-81
2021/06/06 00:07:36;;;;;;;2.70;1.35;;;;;;;12.84;100.00;95989.66;1017080;29;20048;-81
2021/06/06 00:08:07;;;;;;;2.45;1.27;;;;;;;12.78;100.00;95979.75;1013019;29;20013;-81
2021/06/06 00:08:38;;;;;;;3.63;1.20;;;;;;;12.93;100.00;95991.19;1009274;29;20082;-80
2021/06/06 00:09:12;;;;;;;1.98;1.17;;;;;;;12.72;100.00;95961.88;1013205;29;20025;-80
2021/06/06 00:09:44;;;;;;;3.40;1.40;;;;;;;12.79;100.00;95974.25;1013234;29;20029;-81
2021/06/06 00:10:14;;;;;;;2.42;1.27;;;;;;;12.86;100.00;95984.97;1007568;29;20099;-82
2021/06/06 00:10:46;;;;;;;1.98;1.30;;;;;;;12.86;100.00;95984.97;997509;29;20118;-81
2021/06/06 00:11:27;;;;;;;2.35;1.30;;;;;;;12.92;100.00;95991.38;1008827;29;20021;-81
2021/06/06 00:11:58;;;;;;;2.45;1.40;;;;;;;12.84;100.00;95984.34;1005059;29;20465;-81
2021/06/06 00:12:28;;;;;;;2.20;1.65;;;;;;;12.78;100.00;95974.44;1008996;29;20033;-81
2021/06/06 00:12:59;;;;;;;3.30;1.48;;;;;;;12.67;100.00;95959.75;1004860;29;20089;-81
2021/06/06 00:13:30;;;;;;;2.47;1.30;;;;;;;12.71;100.00;95960.22;1005062;29;20033;-80
2021/06/06 00:14:02;;;;;;;4.20;1.70;;;;;;;12.91;100.00;95995.91;1005013;29;20060;-81
2021/06/06 00:14:35;;;;;;;1.73;1.08;;;;;;;12.58;100.00;95956.38;1004850;29;20033;-81
2021/06/06 00:15:08;;;;;;;2.28;1.33;;;;;;;12.80;100.00;95981.22;1008859;29;20124;-81
2021/06/06 00:15:39;;;;;;;3.08;1.60;;;;;;;12.90;100.00;95991.56;1000910;29;20022;-82
2021/06/06 00:16:27;;;;;;;3.80;1.60;;;;;;;12.81;100.00;95974.06;1005252;29;20036;-82
2021/06/06 00:16:59;;;;;;;2.70;1.40;;;;;;;12.87;100.00;95991.13;1012354;29;20031;-80
2021/06/06 00:17:30;;;;;;;1.48;1.00;;;;;;;12.80;100.00;95986.56;1005042;29;20030;-81
2021/06/06 00:18:01;;;;;;;1.90;1.20;;;;;;;12.86;100.00;95987.63;1008440;29;20564;-80
2021/06/06 00:18:32;;;;;;;2.55;1.42;;;;;;;12.85;100.00;95987.81;1000990;29;20095;-81
2021/06/06 00:19:03;;;;;;;2.25;1.20;;;;;;;12.89;100.00;95995.25;1004731;29;20045;-81
2021/06/06 00:19:34;;;;;;;3.08;1.25;;;;;;;12.85;100.00;95998.50;1000971;29;20400;-81
2021/06/06 00:20:06;;;;;;;1.35;1.10;;;;;;;12.71;100.00;95961.03;1004783;29;20034;-80
2021/06/06 00:20:37;;;;;;;2.08;1.40;;;;;;;12.85;100.00;95975.31;1001074;29;20030;-80
2021/06/06 00:21:08;;;;;;;1.88;1.23;;;;;;;12.74;100.00;95960.66;1008375;29;20032;-81
2021/06/06 00:21:39;;;;;;;2.55;1.35;;;;;;;12.84;100.00;95987.00;1008604;29;20082;-80
2021/06/06 00:22:10;;;;;;;1.98;1.30;;;;;;;12.86;100.00;95978.81;1012567;29;20095;-80
2021/06/06 00:22:41;;;;;;;2.15;1.33;;;;;;;12.85;100.00;95983.31;1008826;29;20025;-81
2021/06/06 00:23:11;;;;;;;2.83;1.42;;;;;;;12.90;100.00;95999.56;1004739;29;20484;-80
2021/06/06 00:23:42;;;;;;;4.07;1.35;;;;;;;12.86;100.00;95982.31;1004727;29;20493;-80
2021/06/06 00:24:14;;;;;;;3.83;1.50;;;;;;;12.89;100.00;95986.41;1008428;29;20077;-80
2021/06/06 00:24:44;;;;;;;2.38;0.90;;;;;;;12.90;100.00;95980.09;1000883;29;20014;-80
2021/06/06 00:25:15;;;;;;;2.17;1.30;;;;;;;12.75;100.00;95966.81;1005007;29;20025;-81
2021/06/06 00:25:46;;;;;;;2.90;1.55;;;;;;;12.87;100.00;95977.78;1001097;29;20018;-80
2021/06/06 00:26:17;;;;;;;2.17;1.30;;;;;;;12.88;100.00;95968.78;1008773;29;20021;-80
2021/06/06 00:26:48;;;;;;;3.58;1.38;;;;;;;12.89;100.00;95976.59;997169;29;20136;-80
2021/06/06 00:27:18;;;;;;;4.47;1.40;;;;;;;12.70;100.00;95953.25;1004735;29;20017;-80
2021/06/06 00:27:49;;;;;;;5.63;1.52;;;;;;;12.90;100.00;95986.22;1005055;29;20021;-80
2021/06/06 00:28:20;;;;;;;2.85;1.70;;;;;;;12.94;100.00;95992.00;1008440;29;20017;-80
2021/06/06 00:28:51;;;;;;;2.13;1.20;;;;;;;12.81;100.00;95976.72;1008598;29;20021;-80
2021/06/06 00:29:22;;;;;;;3.70;1.50;;;;;;;12.84;100.00;95992.34;1004700;29;20029;-80
2021/06/06 00:29:54;;;;;;;2.30;1.30;;;;;;;12.85;100.00;95991.31;1008451;29;20055;-80
2021/06/06 00:30:25;;;;;;;2.20;1.42;;;;;;;12.83;100.00;95980.00;1000710;29;20020;-80
2021/06/06 00:30:55;;;;;;;2.03;1.10;;;;;;;12.85;100.00;95983.31;1008445;29;20503;-80
2021/06/06 00:31:26;;;;;;;3.83;1.40;;;;;;;12.82;100.00;95970.38;1008424;29;20020;-80
2021/06/06 00:31:57;;;;;;;3.38;1.42;;;;;;;12.88;100.00;95976.78;1008498;29;20021;-80
2021/06/06 00:32:28;;;;;;;1.90;1.33;;;;;;;12.77;100.00;95967.47;1004510;29;20021;-80
2021/06/06 00:32:59;;;;;;;2.28;1.40;;;;;;;12.71;100.00;95971.69;1008452;29;20379;-80
2021/06/06 00:33:30;;;;;;;2.22;1.38;;;;;;;12.84;100.00;95981.69;1008618;29;20009;-80
2021/06/06 00:34:01;;;;;;;2.03;1.25;;;;;;;12.80;100.00;95972.38;1008559;29;20492;-80
2021/06/06 00:34:31;;;;;;;1.77;1.13;;;;;;;12.91;100.00;95981.75;1008408;29;20025;-80
2021/06/06 00:35:03;;;;;;;3.45;1.60;;;;;;;12.91;100.00;95985.22;1004743;29;20411;-80
2021/06/06 00:35:34;;;;;;;2.47;1.35;;;;;;;12.91;100.00;95993.22;1000804;29;20026;-80
2021/06/06 00:36:06;;;;;;;2.15;1.30;;;;;;;12.93;100.00;95987.72;993576;29;20446;-80
2021/06/06 00:36:36;;;;;;;2.33;1.30;;;;;;;12.87;100.00;95991.97;1004662;29;20021;-80
2021/06/06 00:37:07;;;;;;;2.58;1.42;;;;;;;12.69;100.00;95956.91;1008466;29;20025;-80
2021/06/06 00:37:38;;;;;;;3.30;1.65;;;;;;;12.68;100.00;95960.59;1008399;29;20439;-80
2021/06/06 00:38:09;;;;;;;2.58;1.25;;;;;;;12.78;100.00;95974.44;1008389;29;20387;-80
2021/06/06 00:38:39;;;;;;;2.75;1.45;;;;;;;12.84;100.00;95976.34;1000954;29;20073;-80
2021/06/06 00:39:10;;;;;;;2.40;1.48;;;;;;;12.79;100.00;95973.41;1004601;29;20095;-80
2021/06/06 00:39:41;;;;;;;3.72;1.63;;;;;;;12.85;100.00;95982.50;1000888;29;20014;-80
2021/06/06 00:40:13;;;;;;;2.38;1.67;;;;;;;12.85;100.00;95977.97;1016255;29;20027;-80
2021/06/06 00:40:44;;;;;;;3.33;1.27;;;;;;;12.81;100.00;95974.06;1012296;29;20379;-80
2021/06/06 00:41:15;;;;;;;3.50;1.73;;;;;;;12.97;100.00;95983.63;1005349;29;20022;-80
2021/06/06 00:41:46;;;;;;;2.65;1.60;;;;;;;12.89;100.00;95971.28;1008704;29;20028;-82
2021/06/06 00:42:19;;;;;;;3.38;1.52;;;;;;;12.92;100.00;95988.72;1004905;29;20025;-79
2021/06/06 00:42:49;;;;;;;3.05;1.30;;;;;;;12.92;100.00;95983.38;1005273;29;20485;-78
2021/06/06 00:43:20;;;;;;;2.35;1.23;;;;;;;12.77;100.00;95967.47;1008736;29;20073;-78
2021/06/06 00:43:51;;;;;;;4.03;1.35;;;;;;;12.90;100.00;95977.41;1001274;29;20512;-79
2021/06/06 00:44:24;;;;;;;3.47;1.45;;;;;;;12.94;100.00;95987.53;1004812;29;20026;-79
2021/06/06 00:44:54;;;;;;;3.40;1.60;;;;;;;12.83;100.00;95966.69;1008639;29;20037;-80
2021/06/06 00:45:27;;;;;;;2.50;1.35;;;;;;;13.03;100.00;95988.22;1004633;29;20040;-80
2021/06/06 00:45:58;;;;;;;3.13;1.20;;;;;;;12.94;100.00;95992.00;1001119;29;20057;-79
2021/06/06 00:46:29;;;;;;;3.00;1.40;;;;;;;12.92;100.00;95981.56;1008357;29;20023;-81
2021/06/06 00:47:00;;;;;;;2.28;1.30;;;;;;;12.95;100.00;95991.00;1008471;29;20395;-82
2021/06/06 00:47:30;;;;;;;2.65;1.50;;;;;;;12.91;100.00;95981.75;1016330;29;20016;-80
2021/06/06 00:48:01;;;;;;;3.22;1.55;;;;;;;12.94;100.00;95992.84;1012398;29;20416;-80
2021/06/06 00:48:32;;;;;;;2.40;1.65;;;;;;;12.92;100.00;95989.56;1012408;29;20028;-81
2021/06/06 00:49:03;;;;;;;3.88;1.48;;;;;;;12.94;100.00;95979.53;1004678;29;20069;-79
2021/06/06 00:49:34;;;;;;;3.45;1.48;;;;;;;12.79;100.00;95966.25;1008395;29;20061;-79
2021/06/06 00:50:08;;;;;;;2.33;1.40;;;;;;;12.93;100.00;95982.38;1000912;29;20484;-79
2021/06/06 00:50:41;;;;;;;3.05;1.50;;;;;;;12.93;100.00;95980.53;1004385;29;20035;-80
2021/06/06 00:51:19;;;;;;;2.25;1.40;;;;;;;12.93;100.00;95985.88;1000803;29;20392;-80
2021/06/06 00:51:55;;;;;;;1.83;1.30;;;;;;;12.90;100.00;95975.56;1004845;29;20053;-80
2021/06/06 00:52:25;;;;;;;2.88;1.33;;;;;;;13.02;100.00;95987.38;1000773;29;20037;-80
2021/06/06 00:52:58;;;;;;;2.08;1.27;;;;;;;12.98;100.00;95975.47;1004811;29;20040;-80
2021/06/06 00:53:34;;;;;;;2.85;1.40;;;;;;;12.89;100.00;95963.28;1008579;29;20077;-80
2021/06/06 00:54:19;;;;;;;2.85;1.48;;;;;;;13.08;100.00;95987.63;1004911;29;20086;-80
2021/06/06 00:54:50;;;;;;;2.50;1.60;;;;;;;12.97;100.00;95968.47;1005262;29;20032;-80
2021/06/06 00:55:20;;;;;;;4.47;1.30;;;;;;;13.03;100.00;95990.91;1005117;29;20026;-80
2021/06/06 00:55:51;;;;;;;1.80;1.20;;;;;;;12.91;100.00;95969.25;1001342;29;20022;-80
2021/06/06 00:56:24;;;;;;;1.77;1.20;;;;;;;13.02;100.00;95982.06;1012617;29;20024;-80
2021/06/06 00:57:09;;;;;;;1.92;1.13;;;;;;;13.00;100.00;95986.75;1000982;29;20026;-80
2021/06/06 00:57:39;;;;;;;2.03;1.30;;;;;;;12.90;100.00;95967.56;1004911;29;20021;-80
2021/06/06 00:58:12;;;;;;;4.88;1.58;;;;;;;12.91;100.00;95974.56;1004943;29;20097;-81
2021/06/06 00:58:44;;;;;;;2.70;1.65;;;;;;;12.99;100.00;95985.13;1004867;29;20022;-81
2021/06/06 00:59:18;;;;;;;3.25;1.55;;;;;;;12.89;100.00;95968.59;1009347;29;20120;-80
2021/06/06 00:59:55;;;;;;;1.90;1.30;;;;;;;12.96;100.00;95974.81;1008405;29;20057;-79
2021/06/06 01:00:31;;;;;;;3.00;1.58;;;;;;;12.95;100.00;95980.34;1004721;29;20041;-79
2021/06/06 01:01:04;;;;;;;2.13;1.40;;;;;;;12.97;100.00;95976.47;1016139;29;20064;-80
2021/06/06 01:01:35;;;;;;;2.38;1.27;;;;;;;12.98;100.00;95986.13;1004756;29;20025;-80
2021/06/06 01:02:07;;;;;;;2.65;1.40;;;;;;;12.77;100.00;95970.13;1000858;29;20384;-80
2021/06/06 01:02:40;;;;;;;6.90;1.67;;;;;;;12.73;100.00;95963.50;997025;29;20027;-80
2021/06/06 01:03:11;;;;;;;4.57;1.70;;;;;;;12.69;100.00;95954.25;1000701;29;20125;-80
2021/06/06 01:03:42;;;;;;;2.55;1.42;;;;;;;12.65;100.00;95935.16;1008426;29;20089;-80
2021/06/06 01:04:12;;;;;;;4.57;1.80;;;;;;;12.89;100.00;95973.09;1004534;29;20021;-80
2021/06/06 01:04:43;;;;;;;2.80;1.98;;;;;;;12.73;100.00;95952.84;1008674;29;20401;-79
2021/06/06 01:05:24;;;;;;;2.85;1.48;;;;;;;12.92;100.00;95976.22;996891;29;20028;-79
2021/06/06 01:06:27;;;;;;;2.15;1.45;;;;;;;12.94;100.00;95976.03;1004683;29;20029;-80
2021/06/06 01:06:58;;;;;;;2.90;1.25;;;;;;;12.93;100.00;95980.53;1004527;29;20017;-80
2021/06/06 01:07:29;;;;;;;3.33;1.40;;;;;;;12.93;100.00;95977.06;1012598;29;20017;-80
2021/06/06 01:08:07;;;;;;;2.97;1.45;;;;;;;12.86;100.00;95968.16;1008226;29;20021;-79
2021/06/06 01:08:39;;;;;;;3.08;1.33;;;;;;;12.90;100.00;95975.56;1004517;29;20056;-80
2021/06/06 01:09:11;;;;;;;2.17;1.30;;;;;;;12.94;100.00;95982.19;1000883;29;20441;-80
2021/06/06 01:09:41;;;;;;;2.60;1.23;;;;;;;12.92;100.00;95975.38;1008287;29;20024;-80
2021/06/06 01:10:12;;;;;;;1.75;1.33;;;;;;;12.72;100.00;95951.22;1000953;29;20024;-80
2021/06/06 01:10:43;;;;;;;2.58;1.40;;;;;;;12.79;100.00;95962.75;1004933;29;20017;-80
2021/06/06 01:11:23;;;;;;;1.98;1.20;;;;;;;12.73;100.00;95945.69;1008306;29;20021;-81
2021/06/06 01:12:15;;;;;;;2.90;1.45;;;;;;;12.86;100.00;95974.31;1004610;29;20448;-79
2021/06/06 01:12:53;;;;;;;4.47;1.40;;;;;;;12.81;100.00;95960.72;1004894;29;20077;-79
2021/06/06 01:13:42;;;;;;;2.50;1.48;;;;;;;12.91;100.00;95973.75;1004484;29;20022;-79
2021/06/06 01:14:20;;;;;;;;;;;;;;;12.95;100.00;95975.84;1005026;29;20117;-79
2021/06/06 01:15:18;;;;;;;3.00;1.55;;;;;;;12.66;100.00;95933.31;1004658;29;19904;-80
2021/06/06 01:15:52;;;;;;;2.13;1.35;;;;;;;12.80;100.00;95954.59;1005495;29;20480;-80
2021/06/06 01:16:32;;;;;;;2.55;1.52;;;;;;;12.85;100.00;95974.50;1012231;29;20021;-80
2021/06/06 01:17:09;;;;;;;2.33;1.40;;;;;;;12.75;100.00;95956.13;1012453;29;20526;-80
2021/06/06 01:17:41;;;;;;;3.13;1.40;;;;;;;12.91;100.00;95969.25;1008516;29;20064;-80
2021/06/06 01:18:36;;;;;;;2.55;1.30;;;;;;;12.95;100.00;95970.50;1012320;29;20041;-80
2021/06/06 01:19:16;;;;;;;2.50;1.30;;;;;;;12.91;100.00;95957.75;1004545;29;20029;-80
2021/06/06 01:20:26;;;;;;;3.63;1.40;;;;;;;12.92;100.00;95978.91;1004431;29;20029;-80
2021/06/06 01:21:00;;;;;;;2.75;1.25;;;;;;;12.93;100.00;95977.88;1004515;29;20026;-80
2021/06/06 01:21:48;;;;;;;2.55;1.23;;;;;;;12.82;100.00;95965.88;1002940;29;20017;-80
2021/06/06 01:22:37;;;;;;;2.83;1.40;;;;;;;12.94;100.00;95976.03;1004279;29;20026;-79
2021/06/06 01:23:52;;;;;;;2.13;1.50;;;;;;;12.95;100.00;95967.84;1000807;29;20052;-80
2021/06/06 01:24:29;;;;;;;2.97;1.45;;;;;;;12.90;100.00;95962.25;1000492;29;20432;-81
2021/06/06 01:25:04;;;;;;;3.53;1.50;;;;;;;12.94;100.00;95962.69;985591;30;20557;-79
2021/06/06 01:25:42;;;;;;;1.92;1.50;;;;;;;13.01;100.00;95971.59;1000684;29;20094;-79
2021/06/06 01:26:32;;;;;;;2.58;1.50;;;;;;;12.93;100.00;95958.38;989325;29;20491;-79
2021/06/06 01:27:09;;;;;;;2.03;1.45;;;;;;;12.99;100.00;95974.44;996923;29;20103;-80
2021/06/06 01:27:41;;;;;;;2.40;1.33;;;;;;;12.96;100.00;95963.34;996871;29;20040;-79
2021/06/06 01:28:20;;;;;;;3.65;1.25;;;;;;;12.94;100.00;95958.19;1004124;29;20088;-79
2021/06/06 01:29:15;;;;;;;2.20;1.40;;;;;;;12.99;100.00;95968.28;993127;29;20027;-80
2021/06/06 01:30:01;;;;;;;4.35;1.35;;;;;;;12.94;100.00;95970.69;988917;29;20514;-80
2021/06/06 01:30:33;;;;;;;3.17;1.40;;;;;;;12.93;100.00;95974.38;1003703;29;20473;-81
2021/06/06 01:31:04;;;;;;;2.45;1.27;;;;;;;12.97;100.00;95970.31;1012245;29;20039;-80
2021/06/06 01:31:36;;;;;;;1.92;1.33;;;;;;;12.80;100.00;95938.59;1008345;29;20025;-79
2021/06/06 01:32:25;;;;;;;4.45;1.90;;;;;;;12.98;100.00;95964.78;1004303;29;20041;-79
2021/06/06 01:33:04;;;;;;;2.58;1.42;;;;;;;13.05;100.00;95959.53;1004695;29;20017;-80
2021/06/06 01:33:51;;;;;;;2.50;1.52;;;;;;;12.99;100.00;95966.47;1000762;29;20125;-80
2021/06/06 01:34:23;;;;;;;4.80;1.73;;;;;;;12.94;100.00;95952.03;1004510;29;20081;-80
2021/06/06 01:35:16;;;;;;;2.70;1.65;;;;;;;13.11;100.00;95964.09;1000657;29;20100;-80
2021/06/06 01:35:49;;;;;;;3.78;1.63;;;;;;;13.01;100.00;95952.94;1008366;29;20025;-80
2021/06/06 01:36:25;;;;;;;3.72;1.77;;;;;;;12.97;100.00;95963.13;1000855;29;20054;-80
2021/06/06 01:37:07;;;;;;;1.80;1.40;;;;;;;12.96;100.00;95958.00;1008271;29;20037;-80
2021/06/06 01:37:43;;;;;;;2.03;1.33;;;;;;;12.74;100.00;95911.88;1004639;29;20030;-80
2021/06/06 01:38:34;;;;;;;1.95;1.30;;;;;;;12.85;100.00;95932.66;1004302;29;20523;-80
2021/06/06 01:39:08;;;;;;;4.78;1.73;;;;;;;12.89;100.00;95951.78;1004424;29;20033;-80
2021/06/06 01:39:49;;;;;;;2.25;1.55;;;;;;;12.99;100.00;95963.78;1008091;29;20089;-81
2021/06/06 01:40:22;;;;;;;2.03;1.40;;;;;;;12.99;100.00;95960.28;1012046;29;20028;-80
2021/06/06 01:40:55;;;;;;;3.20;1.77;;;;;;;13.01;100.00;95961.75;1000645;29;20086;-79
2021/06/06 01:41:40;;;;;;;2.95;1.35;;;;;;;12.96;100.00;95960.69;1000770;29;20030;-80
2021/06/06 01:42:13;;;;;;;2.08;1.40;;;;;;;13.01;100.00;95967.09;1004619;29;20029;-80
2021/06/06 01:42:46;;;;;;;3.63;1.65;;;;;;;13.00;100.00;95961.94;1008380;29;20488;-80
2021/06/06 01:43:20;;;;;;;2.05;1.40;;;;;;;13.05;100.00;95962.19;1004867;29;20076;-80
2021/06/06 01:43:53;;;;;;;3.13;1.50;;;;;;;12.82;100.00;95930.41;997146;29;20516;-79
2021/06/06 01:44:26;;;;;;;3.05;1.50;;;;;;;13.02;100.00;95962.56;1000676;29;20038;-79
2021/06/06 01:45:00;;;;;;;1.98;1.15;;;;;;;12.89;100.00;95949.94;996924;29;20054;-80
2021/06/06 01:45:39;;;;;;;1.92;1.10;;;;;;;13.00;100.00;95964.59;1000814;29;20036;-80
2021/06/06 01:46:13;;;;;;;2.03;1.55;;;;;;;12.99;100.00;95957.63;1008445;29;20032;-81
2021/06/06 01:46:46;;;;;;;4.25;1.50;;;;;;;13.07;100.00;95959.34;1004458;29;20065;-80
2021/06/06 01:47:19;;;;;;;2.08;1.38;;;;;;;13.11;100.00;95960.59;1004611;29;20120;-81
2021/06/06 01:47:50;;;;;;;2.30;1.30;;;;;;;12.99;100.00;95950.47;1008399;29;20497;-80
2021/06/06 01:48:21;;;;;;;3.08;1.48;;;;;;;13.01;100.00;95955.59;1008264;29;20021;-79
2021/06/06 01:48:52;;;;;;;3.15;1.40;;;;;;;12.96;100.00;95939.34;1008248;29;20033;-80
2021/06/06 01:49:22;;;;;;;1.92;1.35;;;;;;;13.08;100.00;95960.97;997193;29;20022;-81
2021/06/06 01:49:59;;;;;;;3.50;1.83;;;;;;;13.04;100.00;95959.72;1000692;29;20404;-79
2021/06/06 01:50:32;;;;;;;2.70;1.50;;;;;;;13.09;100.00;95959.97;1000647;29;20021;-80
2021/06/06 01:51:06;;;;;;;2.17;1.48;;;;;;;12.91;100.00;95949.75;1000637;29;20022;-80
2021/06/06 01:51:40;;;;;;;2.55;1.30;;;;;;;12.92;100.00;95952.25;1005222;29;20101;-80
2021/06/06 01:52:11;;;;;;;3.13;1.73;;;;;;;12.93;100.00;95951.22;1005010;29;20130;-80
2021/06/06 01:52:42;;;;;;;3.05;1.33;;;;;;;12.76;100.00;95928.50;1000917;29;20106;-80
2021/06/06 01:53:13;;;;;;;4.95;1.50;;;;;;;12.88;100.00;95950.94;1000940;29;20030;-81
2021/06/06 01:53:44;;;;;;;2.47;1.45;;;;;;;12.97;100.00;95959.66;1000853;29;20507;-80
2021/06/06 01:54:16;;;;;;;3.33;1.50;;;;;;;12.80;100.00;95927.94;1000888;29;20045;-80
2021/06/06 01:54:46;;;;;;;2.50;1.80;;;;;;;12.95;100.00;95949.16;1004573;29;20033;-79
2021/06/06 01:55:18;;;;;;;3.35;1.88;;;;;;;13.08;100.00;95961.81;1012088;29;20047;-81
2021/06/06 01:55:51;;;;;;;2.53;1.80;;;;;;;12.94;100.00;95947.53;1012301;29;20059;-80
2021/06/06 01:56:25;;;;;;;2.65;1.60;;;;;;;12.97;100.00;95959.66;1008743;29;20033;-79
2021/06/06 01:56:55;;;;;;;2.88;1.52;;;;;;;12.79;100.00;95912.13;1012089;29;20095;-79
2021/06/06 01:57:26;;;;;;;2.25;1.30;;;;;;;13.05;100.00;95962.19;1008993;29;20118;-81
2021/06/06 01:57:59;;;;;;;3.20;1.48;;;;;;;13.05;100.00;95954.19;1013197;29;20089;-79
2021/06/06 01:58:30;;;;;;;3.70;1.63;;;;;;;12.89;100.00;95941.94;1005107;29;20049;-80
2021/06/06 01:59:05;;;;;;;2.78;1.50;;;;;;;12.97;100.00;95952.47;1008984;29;20033;-80
2021/06/06 01:59:38;;;;;;;4.95;1.65;;;;;;;12.97;100.00;95941.00;1005204;29;20108;-81
2021/06/06 02:00:13;;;;;;;1.60;1.10;;;;;;;13.01;100.00;95944.94;1001625;29;20026;-80
2021/06/06 02:00:48;;;;;;;2.15;1.50;;;;;;;12.98;100.00;95934.66;1004840;29;20069;-80
2021/06/06 02:01:20;;;;;;;3.58;1.58;;;;;;;13.09;100.00;95950.13;1001303;29;20061;-80
2021/06/06 02:01:51;;;;;;;2.63;1.42;;;;;;;12.93;100.00;95927.22;1004508;29;20041;-80
2021/06/06 02:02:21;;;;;;;2.85;1.73;;;;;;;13.00;100.00;95935.28;1008819;29;20059;-80
2021/06/06 02:02:52;;;;;;;2.80;1.38;;;;;;;13.15;100.00;95952.03;1005180;29;20030;-80
2021/06/06 02:03:23;;;;;;;1.67;1.25;;;;;;;13.10;100.00;95941.13;1000399;29;20038;-80
2021/06/06 02:03:56;;;;;;;3.42;1.60;;;;;;;13.10;100.00;95950.97;1009309;29;20074;-80
2021/06/06 02:04:27;;;;;;;2.42;1.50;;;;;;;13.09;100.00;95938.63;1008731;29;20142;-80
2021/06/06 02:04:57;;;;;;;2.53;1.58;;;;;;;12.94;100.00;95922.69;1001291;29;20116;-80
2021/06/06 02:05:28;;;;;;;2.50;1.50;;;;;;;13.18;100.00;95961.47;1005116;29;20080;-80
2021/06/06 02:05:59;;;;;;;2.75;1.50;;;;;;;13.06;100.00;95931.00;1005202;29;20100;-80
2021/06/06 02:06:42;;;;;;;2.08;1.23;;;;;;;12.88;100.00;95916.31;1016794;29;20024;-80
2021/06/06 02:07:25;;;;;;;3.30;1.45;;;;;;;12.99;100.00;95939.78;1005086;29;20468;-79
2021/06/06 02:07:56;;;;;;;2.17;1.50;;;;;;;13.05;100.00;95956.03;1001561;29;20074;-80
2021/06/06 02:08:29;;;;;;;2.95;1.65;;;;;;;13.00;100.00;95937.94;1001491;29;20026;-80
2021/06/06 02:08:59;;;;;;;3.38;1.48;;;;;;;13.02;100.00;95958.06;1009129;29;20025;-80
2021/06/06 02:09:31;;;;;;;3.85;1.40;;;;;;;12.87;100.00;95938.66;1005082;29;20025;-80
2021/06/06 02:10:35;;;;;;;2.40;1.63;;;;;;;12.96;100.00;95945.50;1004970;29;20021;-80
2021/06/06 02:11:11;;;;;;;2.13;1.38;;;;;;;13.00;100.00;95954.75;1005538;29;20033;-79
2021/06/06 02:11:45;;;;;;;1.98;1.40;;;;;;;12.96;100.00;95958.84;1007737;29;20025;-78
2021/06/06 02:12:16;;;;;;;2.55;1.55;;;;;;;12.94;100.00;95944.88;1009056;29;20028;-79
2021/06/06 02:12:49;;;;;;;2.90;1.65;;;;;;;12.93;100.00;95945.88;1005227;29;20172;-80
2021/06/06 02:13:44;;;;;;;2.92;1.45;;;;;;;12.93;100.00;95948.53;1008930;29;20028;-79
2021/06/06 02:14:21;;;;;;;2.47;1.48;;;;;;;12.96;100.00;95944.69;1005253;29;20034;-79
2021/06/06 02:14:52;;;;;;;1.92;1.45;;;;;;;12.91;100.00;95950.59;1009489;29;20037;-79
2021/06/06 02:15:30;;;;;;;2.38;1.52;;;;;;;13.00;100.00;95953.94;1005716;29;20029;-79
2021/06/06 02:16:02;;;;;;;1.80;1.20;;;;;;;12.95;100.00;95941.19;1005677;29;20028;-79
2021/06/06 02:16:37;;;;;;;1.60;1.30;;;;;;;12.98;100.00;95942.66;1013952;29;20029;-79
2021/06/06 02:17:30;;;;;;;2.50;1.55;;;;;;;13.06;100.00;95947.00;1005989;29;20033;-79
2021/06/06 02:18:01;;;;;;;3.70;1.40;;;;;;;13.01;100.00;95944.94;1013284;29;20562;-79
2021/06/06 02:18:31;;;;;;;1.58;1.13;;;;;;;13.08;100.00;95944.97;1005714;29;20029;-80
2021/06/06 02:19:04;;;;;;;3.47;1.75;;;;;;;13.08;100.00;95944.97;1009983;29;20027;-79
2021/06/06 02:19:36;;;;;;;1.63;1.27;;;;;;;12.98;100.00;95932.00;1009728;29;20021;-79
2021/06/06 02:20:09;;;;;;;3.30;1.50;;;;;;;12.93;100.00;95916.56;1006804;29;20051;-80
2021/06/06 02:20:42;;;;;;;1.83;1.30;;;;;;;13.16;100.00;95950.19;1011504;29;20518;-80
2021/06/06 02:21:13;;;;;;;2.97;1.38;;;;;;;13.21;100.00;95940.59;1001065;29;20067;-80
2021/06/06 02:21:44;;;;;;;2.72;1.65;;;;;;;13.16;100.00;95947.53;1008785;29;20024;-80
2021/06/06 02:22:15;;;;;;;2.88;1.40;;;;;;;13.13;100.00;95943.41;1007611;29;20032;-80
2021/06/06 02:22:46;;;;;;;2.20;1.52;;;;;;;12.97;100.00;95912.47;1008475;29;20042;-80
2021/06/06 02:23:19;;;;;;;2.28;1.58;;;;;;;13.12;100.00;95946.25;1008993;29;20021;-79
2021/06/06 02:23:49;;;;;;;3.05;1.30;;;;;;;12.87;100.00;95912.00;1004120;29;20037;-80
2021/06/06 02:24:20;;;;;;;2.10;1.30;;;;;;;13.06;100.00;95947.00;1011597;29;20040;-80
2021/06/06 02:24:51;;;;;;;2.13;1.27;;;;;;;13.10;100.00;95929.63;1004721;29;20025;-80
2021/06/06 02:25:22;;;;;;;3.58;1.70;;;;;;;13.13;100.00;95935.41;1009248;29;20025;-80
2021/06/06 02:26:12;;;;;;;2.58;1.52;;;;;;;13.21;100.00;95947.78;1009101;29;20028;-80
2021/06/06 02:26:48;;;;;;;2.97;1.50;;;;;;;13.24;100.00;95941.25;1013005;29;20550;-80
2021/06/06 02:27:36;;;;;;;2.55;1.50;;;;;;;13.20;100.00;95933.63;1009395;29;20495;-80
2021/06/06 02:28:26;;;;;;;2.45;1.35;;;;;;;13.17;100.00;95949.19;1008706;29;20507;-80
2021/06/06 02:29:03;;;;;;;2.75;1.27;;;;;;;13.08;100.00;95940.50;1009068;29;20021;-81
2021/06/06 02:29:59;;;;;;;2.15;1.30;;;;;;;12.99;100.00;95934.47;1009068;29;20509;-80
2021/06/06 02:30:46;;;;;;;2.35;1.42;;;;;;;13.13;100.00;95945.22;1008890;29;20062;-80
2021/06/06 02:31:25;;;;;;;2.17;1.55;;;;;;;13.01;100.00;95923.63;1012987;29;20025;-80
2021/06/06 02:32:04;;;;;;;2.45;1.30;;;;;;;13.18;100.00;95950.81;1013036;29;20470;-80
2021/06/06 02:32:56;;;;;;;3.47;1.63;;;;;;;13.22;100.00;95954.75;1016717;29;20024;-80
2021/06/06 02:33:28;;;;;;;2.58;1.60;;;;;;;13.24;100.00;95943.91;1012870;29;20077;-80
2021/06/06 02:34:23;;;;;;;1.67;1.20;;;;;;;13.23;100.00;95939.56;1009037;29;20032;-80
2021/06/06 02:35:06;;;;;;;3.20;1.30;;;;;;;13.28;100.00;95947.81;1005244;29;20032;-79
2021/06/06 02:35:54;;;;;;;2.85;1.50;;;;;;;13.07;100.00;95922.81;1008891;29;20033;-80
2021/06/06 02:36:25;;;;;;;3.97;1.33;;;;;;;13.05;100.00;95924.06;1004874;29;20498;-80
2021/06/06 02:37:08;;;;;;;2.55;1.40;;;;;;;13.17;100.00;95944.66;1012502;29;20032;-80
2021/06/06 02:37:54;;;;;;;3.92;1.40;;;;;;;13.05;100.00;95924.88;1004990;29;20033;-80
2021/06/06 02:38:36;;;;;;;2.30;1.50;;;;;;;13.12;100.00;95935.59;1005008;29;20530;-80
2021/06/06 02:39:10;;;;;;;3.22;1.50;;;;;;;13.12;100.00;95935.59;1009031;29;20032;-80
2021/06/06 02:39:43;;;;;;;3.08;1.30;;;;;;;13.14;100.00;95939.69;1012676;29;20024;-80
2021/06/06 02:40:35;;;;;;;2.38;1.50;;;;;;;13.19;100.00;95947.13;1005040;29;20032;-80
2021/06/06 02:41:09;;;;;;;3.00;1.20;;;;;;;13.09;100.00;95949.31;1001376;29;20080;-80
2021/06/06 02:42:02;;;;;;;4.20;1.45;;;;;;;13.05;100.00;95927.53;1008854;29;20035;-80
2021/06/06 02:42:35;;;;;;;1.83;1.25;;;;;;;12.97;100.00;95911.66;1008763;29;20025;-79
2021/06/06 02:43:30;;;;;;;2.60;1.30;;;;;;;13.16;100.00;95942.19;1008832;29;20033;-79
2021/06/06 02:44:14;;;;;;;2.33;1.40;;;;;;;13.19;100.00;95944.47;1005134;29;20124;-80
2021/06/06 02:44:51;;;;;;;2.67;1.30;;;;;;;12.93;100.00;95932.53;1006036;29;20022;-80